Time;durP1;ratioP1;P1;durP2;ratioP2;P2;SDS_P1;SDS_P2;PMS_P1;PMS_P2;Temp;Humidity;BMP_temperature;BMP_pressure;BME280_temperature;BME280_humidity;BME280_pressure;Samples;Min_cycle;Max_cycle;Signal;HPM_P1;HPM_P2
2021/10/26 00:00:21;;;;;;;5.65;4.65;;;;;;;2.80;100.00;93494.59;2121079;27;20047;-88
2021/10/26 00:01:22;;;;;;;6.85;4.65;;;;;;;2.80;100.00;93472.72;2098763;28;20029;-87
2021/10/26 00:02:23;;;;;;;5.75;4.80;;;;;;;2.85;100.00;93486.38;2101186;28;20069;-90
2021/10/26 00:03:24;;;;;;;7.18;4.82;;;;;;;2.87;100.00;93492.06;2103971;28;20129;-89
2021/10/26 00:04:26;;;;;;;5.80;4.00;;;;;;;2.80;100.00;93483.28;2093118;28;20751;-86
2021/10/26 00:05:28;;;;;;;6.95;4.65;;;;;;;2.83;100.00;93482.59;2098939;28;20024;-85
2021/10/26 00:06:28;;;;;;;7.63;4.43;;;;;;;2.96;100.00;93492.56;2098705;28;20164;-86
2021/10/26 00:07:30;;;;;;;6.88;4.47;;;;;;;2.90;100.00;93488.72;2106873;28;20751;-85
2021/10/26 00:08:31;;;;;;;4.68;4.20;;;;;;;2.87;100.00;93488.69;2115314;28;20046;-88
2021/10/26 00:09:32;;;;;;;4.85;4.35;;;;;;;2.91;100.00;93486.84;2105619;28;20020;-89
2021/10/26 00:10:33;;;;;;;5.63;4.60;;;;;;;2.95;100.00;93485.78;2102582;28;20024;-86
2021/10/26 00:11:34;;;;;;;6.10;4.28;;;;;;;2.98;100.00;93489.56;2106899;28;20074;-85
2021/10/26 00:12:35;;;;;;;7.90;4.88;;;;;;;2.92;100.00;93486.47;2107054;27;20028;-89
2021/10/26 00:13:37;;;;;;;6.18;5.03;;;;;;;2.93;100.00;93493.28;2107180;28;20469;-90
2021/10/26 00:14:38;;;;;;;5.22;4.57;;;;;;;2.93;100.00;93481.94;2104650;28;20027;-87
2021/10/26 00:15:39;;;;;;;5.13;4.18;;;;;;;2.96;100.00;93491.81;2096137;28;20481;-87
2021/10/26 00:16:40;;;;;;;5.57;4.45;;;;;;;3.06;100.00;93485.13;2099745;28;20020;-87
2021/10/26 00:17:41;;;;;;;4.97;4.00;;;;;;;3.11;100.00;93487.47;2107140;28;20026;-89
2021/10/26 00:18:43;;;;;;;6.78;4.30;;;;;;;3.14;100.00;93489.38;2115386;28;20023;-90
2021/10/26 00:19:44;;;;;;;4.95;4.18;;;;;;;3.21;100.00;93489.47;2115773;28;20027;-86
2021/10/26 00:20:45;;;;;;;5.88;4.32;;;;;;;3.07;100.00;93489.28;2105429;28;20520;-88
2021/10/26 00:21:46;;;;;;;6.60;4.32;;;;;;;3.14;100.00;93492.03;2098668;28;20497;-86
2021/10/26 00:22:47;;;;;;;4.65;4.25;;;;;;;3.12;100.00;93489.00;2108953;28;20103;-88
2021/10/26 00:23:48;;;;;;;7.43;4.38;;;;;;;3.15;100.00;93488.25;2098507;28;20025;-87
2021/10/26 00:24:49;;;;;;;6.30;4.72;;;;;;;3.19;100.00;93489.06;2097036;28;20054;-88
2021/10/26 00:25:50;;;;;;;6.30;5.22;;;;;;;3.25;100.00;93488.41;2103007;28;20028;-92
2021/10/26 00:26:51;;;;;;;8.63;5.18;;;;;;;3.25;100.00;93485.75;2098133;28;20511;-88
2021/10/26 00:27:52;;;;;;;8.00;5.65;;;;;;;3.22;100.00;93485.72;2097041;28;20020;-88
2021/10/26 00:28:54;;;;;;;8.05;5.60;;;;;;;3.23;100.00;93485.34;2098270;28;20056;-88
2021/10/26 00:29:55;;;;;;;7.22;5.68;;;;;;;3.23;100.00;93488.00;2107138;28;20028;-88
2021/10/26 00:30:56;;;;;;;7.47;5.35;;;;;;;3.20;100.00;93490.59;2115147;28;20031;-86
2021/10/26 00:31:57;;;;;;;7.00;5.55;;;;;;;3.23;100.00;93484.59;2106880;28;20443;-89
2021/10/26 00:32:58;;;;;;;8.98;5.65;;;;;;;3.32;100.00;93492.25;2106677;28;20090;-85
2021/10/26 00:33:59;;;;;;;8.15;5.65;;;;;;;3.30;100.00;93486.56;2106640;28;20055;-89
2021/10/26 00:35:00;;;;;;;6.53;4.97;;;;;;;3.34;100.00;93490.78;2099318;28;20032;-86
2021/10/26 00:36:02;;;;;;;9.35;5.53;;;;;;;3.32;100.00;93487.72;2100996;28;20147;-89
2021/10/26 00:37:03;;;;;;;9.00;5.30;;;;;;;3.34;100.00;93490.00;2098384;28;20044;-90
2021/10/26 00:38:04;;;;;;;7.05;4.78;;;;;;;3.31;100.00;93485.44;2098586;28;20365;-88
2021/10/26 00:39:06;;;;;;;5.97;5.38;;;;;;;3.31;100.00;93488.09;2106497;28;20114;-87
2021/10/26 00:40:08;;;;;;;7.05;5.15;;;;;;;3.34;100.00;93485.50;2098993;28;20028;-88
2021/10/26 00:41:09;;;;;;;6.20;5.28;;;;;;;3.42;100.00;93487.06;2106470;28;20024;-89
2021/10/26 00:42:11;;;;;;;6.50;5.15;;;;;;;3.49;100.00;93489.03;2102008;28;20480;-87
2021/10/26 00:43:13;;;;;;;5.93;4.95;;;;;;;3.47;100.00;93489.41;2098579;28;20036;-84
2021/10/26 00:44:14;;;;;;;8.07;4.60;;;;;;;3.50;100.00;93493.19;2099147;28;20024;-87
2021/10/26 00:45:15;;;;;;;6.40;5.25;;;;;;;3.56;100.00;93489.13;2105855;28;20028;-86
2021/10/26 00:46:36;;;;;;;5.47;4.80;;;;;;;3.63;100.00;93491.81;2104167;28;20074;-88
2021/10/26 00:47:36;;;;;;;;;;;;;;;3.61;100.00;93491.44;2096964;28;20475;-86
2021/10/26 00:48:38;;;;;;;7.38;4.93;;;;;;;3.68;100.00;93488.84;2093609;28;19916;-87
2021/10/26 00:49:39;;;;;;;6.80;4.93;;;;;;;3.68;100.00;93488.84;2094329;28;20038;-88
2021/10/26 00:50:40;;;;;;;8.45;6.03;;;;;;;3.68;100.00;93493.38;2098377;28;20028;-87
2021/10/26 00:51:42;;;;;;;10.63;6.88;;;;;;;3.73;100.00;93493.84;2110256;28;20106;-85
2021/10/26 00:52:45;;;;;;;9.10;6.38;;;;;;;3.71;100.00;93490.78;2090153;28;20742;-89
2021/10/26 00:53:46;;;;;;;7.03;5.80;;;;;;;3.77;100.00;93493.84;2095785;28;20024;-88
2021/10/26 00:54:47;;;;;;;6.82;6.05;;;;;;;3.80;100.00;93495.78;2098467;28;20024;-91
2021/10/26 00:55:49;;;;;;;5.93;5.40;;;;;;;3.79;100.00;93486.34;2094570;28;20025;-87
2021/10/26 00:56:50;;;;;;;6.82;6.13;;;;;;;3.75;100.00;93491.56;2104731;28;20024;-87
2021/10/26 00:57:51;;;;;;;8.95;6.05;;;;;;;3.76;100.00;93492.34;2098114;28;20113;-88
2021/10/26 00:58:52;;;;;;;6.53;5.32;;;;;;;3.80;100.00;93485.19;2098716;28;20028;-86
2021/10/26 00:59:54;;;;;;;7.28;5.82;;;;;;;3.82;100.00;93488.25;2096749;28;20024;-88
2021/10/26 01:00:56;;;;;;;7.45;6.63;;;;;;;3.81;100.00;93485.97;2091277;28;20917;-86
2021/10/26 01:01:56;;;;;;;8.90;6.32;;;;;;;3.85;100.00;93484.13;2098252;28;20028;-88
2021/10/26 01:02:57;;;;;;;7.57;6.40;;;;;;;3.89;100.00;93484.91;2105459;28;20491;-86
2021/10/26 01:03:58;;;;;;;6.93;5.78;;;;;;;3.94;100.00;93493.25;2105795;28;20115;-89
2021/10/26 01:05:04;;;;;;;7.32;6.32;;;;;;;3.98;100.00;93493.31;2098960;28;20012;-88
2021/10/26 01:06:06;;;;;;;8.50;6.70;;;;;;;3.91;100.00;93495.91;2104372;28;20031;-89
2021/10/26 01:07:07;;;;;;;12.30;6.68;;;;;;;3.91;100.00;93499.31;2090224;28;20063;-85
2021/10/26 01:08:08;;;;;;;7.68;6.63;;;;;;;3.97;100.00;93495.19;2105892;28;20051;-87
2021/10/26 01:09:09;;;;;;;7.15;6.10;;;;;;;3.91;100.00;93496.66;2095699;28;20499;-88
2021/10/26 01:10:10;;;;;;;8.30;6.55;;;;;;;3.91;100.00;93503.84;2097920;28;20384;-87
2021/10/26 01:11:11;;;;;;;9.65;6.68;;;;;;;3.99;100.00;93500.09;2098304;28;20034;-89
2021/10/26 01:12:12;;;;;;;8.75;6.70;;;;;;;4.00;100.00;93499.00;2100750;28;20031;-87
2021/10/26 01:13:13;;;;;;;8.93;7.07;;;;;;;3.96;100.00;93498.22;2106603;28;20027;-90
2021/10/26 01:14:16;;;;;;;7.60;6.75;;;;;;;4.09;100.00;93498.69;2109241;28;20024;-88
2021/10/26 01:15:17;;;;;;;9.68;6.82;;;;;;;4.18;100.00;93504.44;2101208;28;20133;-86
2021/10/26 01:16:18;;;;;;;9.18;6.55;;;;;;;4.15;100.00;93500.63;2100371;28;20119;-84
2021/10/26 01:17:20;;;;;;;11.05;6.85;;;;;;;4.16;100.00;93502.16;2106070;28;20075;-91
2021/10/26 01:18:22;;;;;;;11.27;7.05;;;;;;;4.18;100.00;93502.56;2106747;28;20023;-87
2021/10/26 01:19:24;;;;;;;9.38;6.82;;;;;;;4.27;100.00;93499.59;2106768;28;20409;-86
2021/10/26 01:20:25;;;;;;;8.07;7.15;;;;;;;4.24;100.00;93500.34;2111921;28;20042;-89
2021/10/26 01:21:26;;;;;;;8.15;6.38;;;;;;;4.22;100.00;93497.31;2101009;28;20134;-87
2021/10/26 01:22:30;;;;;;;10.27;6.72;;;;;;;4.20;100.00;93502.19;2103673;28;20111;-89
2021/10/26 01:23:32;;;;;;;8.15;6.82;;;;;;;4.18;100.00;93491.97;2094207;28;20016;-85
2021/10/26 01:24:33;;;;;;;9.15;6.65;;;;;;;4.19;100.00;93500.66;2106669;28;20411;-88
2021/10/26 01:25:35;;;;;;;7.90;6.57;;;;;;;4.13;100.00;93486.28;2102579;28;20017;-87
2021/10/26 01:26:36;;;;;;;9.10;6.97;;;;;;;4.12;100.00;93490.03;2097760;28;20032;-87
2021/10/26 01:27:44;;;;;;;7.10;5.90;;;;;;;4.10;100.00;93487.75;2098172;27;20055;-89
2021/10/26 01:28:45;;;;;;;8.93;6.18;;;;;;;4.15;100.00;93492.69;2107630;28;20540;-86
2021/10/26 01:29:47;;;;;;;7.10;5.70;;;;;;;4.21;100.00;93488.56;2106367;28;20024;-87
2021/10/26 01:30:48;;;;;;;8.25;5.60;;;;;;;4.20;100.00;93488.97;2115039;28;20028;-91
2021/10/26 01:31:49;;;;;;;7.20;5.95;;;;;;;4.20;100.00;93496.88;2116563;27;20053;-89
2021/10/26 01:32:50;;;;;;;8.45;6.00;;;;;;;4.18;100.00;93493.88;2097287;28;20501;-89
2021/10/26 01:33:51;;;;;;;8.15;5.97;;;;;;;4.19;100.00;93495.38;2095624;28;20025;-90
2021/10/26 01:34:52;;;;;;;6.55;5.53;;;;;;;4.25;100.00;93491.25;2106154;28;20825;-89
2021/10/26 01:35:54;;;;;;;8.30;5.80;;;;;;;4.21;100.00;93490.47;2103050;28;20031;-86
2021/10/26 01:36:58;;;;;;;6.78;6.10;;;;;;;4.24;100.00;93489.75;2097462;28;20020;-90
2021/10/26 01:38:01;;;;;;;7.10;6.40;;;;;;;4.22;100.00;93494.66;2093435;28;20053;-88
2021/10/26 01:39:02;;;;;;;9.75;6.10;;;;;;;4.21;100.00;93493.13;2102133;28;20009;-88
2021/10/26 01:40:04;;;;;;;8.50;6.93;;;;;;;4.20;100.00;93496.88;2108797;28;20026;-88
2021/10/26 01:41:06;;;;;;;9.25;6.63;;;;;;;4.24;100.00;93489.75;2106120;28;20038;-85
2021/10/26 01:42:08;;;;;;;8.05;6.65;;;;;;;4.28;100.00;93493.19;2098153;28;20024;-87
2021/10/26 01:43:09;;;;;;;8.52;6.78;;;;;;;4.30;100.00;93490.91;2106281;28;20039;-87
2021/10/26 01:44:10;;;;;;;10.93;7.38;;;;;;;4.36;100.00;93483.41;2101416;28;20020;-90
2021/10/26 01:45:12;;;;;;;7.53;6.75;;;;;;;4.29;100.00;93484.13;2099405;28;20016;-86
2021/10/26 01:46:13;;;;;;;9.65;7.13;;;;;;;4.24;100.00;93487.84;2106142;28;20100;-86
2021/10/26 01:47:14;;;;;;;9.50;6.68;;;;;;;4.26;100.00;93485.63;2097952;28;20020;-87
2021/10/26 01:48:15;;;;;;;8.52;6.93;;;;;;;4.22;100.00;93490.13;2095129;28;20021;-89
2021/10/26 01:49:17;;;;;;;7.68;6.25;;;;;;;4.25;100.00;93485.97;2089713;28;20032;-88
2021/10/26 01:50:18;;;;;;;8.18;6.38;;;;;;;4.26;100.00;93488.28;2112230;27;20074;-86
2021/10/26 01:51:19;;;;;;;9.13;7.53;;;;;;;4.27;100.00;93483.72;2114506;28;20024;-88
2021/10/26 01:52:20;;;;;;;9.20;7.10;;;;;;;4.28;100.00;93491.28;2102816;28;20043;-87
2021/10/26 01:53:21;;;;;;;8.80;6.60;;;;;;;4.24;100.00;93493.16;2098200;28;20854;-87
2021/10/26 01:54:22;;;;;;;6.72;6.05;;;;;;;4.22;100.00;93489.38;2090552;28;20028;-84
2021/10/26 01:55:24;;;;;;;7.38;6.25;;;;;;;4.21;100.00;93493.13;2097897;28;20028;-90
2021/10/26 01:56:25;;;;;;;7.25;6.15;;;;;;;4.21;100.00;93501.81;2120543;27;20118;-85
2021/10/26 01:57:27;;;;;;;8.02;6.70;;;;;;;4.20;100.00;93497.66;2103540;28;20477;-86
2021/10/26 01:58:28;;;;;;;8.05;6.43;;;;;;;4.16;100.00;93499.50;2090587;28;20071;-89
2021/10/26 01:59:30;;;;;;;6.57;5.97;;;;;;;4.20;100.00;93502.19;2092313;28;20027;-89
2021/10/26 02:00:31;;;;;;;7.50;6.53;;;;;;;4.23;100.00;93504.88;2106175;28;20050;-88
2021/10/26 02:01:32;;;;;;;9.27;6.22;;;;;;;4.26;100.00;93501.50;2102690;28;20075;-88
2021/10/26 02:02:33;;;;;;;11.00;6.50;;;;;;;4.23;100.00;93512.03;2092518;28;20030;-91
2021/10/26 02:03:34;;;;;;;7.28;5.72;;;;;;;4.22;100.00;93503.34;2097741;28;20020;-90
2021/10/26 02:04:36;;;;;;;10.70;6.47;;;;;;;4.20;100.00;93502.19;2101273;28;20027;-89
2021/10/26 02:05:37;;;;;;;7.60;6.15;;;;;;;4.23;100.00;93501.47;2101982;28;20066;-85
2021/10/26 02:08:12;;;;;;;;;;;;;;;4.13;100.00;93513.47;2150015;27;20106;-87
2021/10/26 02:09:14;;;;;;;6.03;5.43;;;;;;;4.16;100.00;93501.38;2139624;27;19963;-92
2021/10/26 02:10:16;;;;;;;9.77;5.95;;;;;;;4.17;100.00;93508.19;2123282;27;20430;-91
2021/10/26 02:11:17;;;;;;;7.03;6.32;;;;;;;4.18;100.00;93501.81;2122850;27;20027;-91
2021/10/26 02:12:19;;;;;;;6.38;5.78;;;;;;;4.19;100.00;93504.06;2122738;28;20023;-92
2021/10/26 02:13:20;;;;;;;7.82;6.15;;;;;;;4.21;100.00;93501.81;2122460;27;20141;-93
2021/10/26 02:14:21;;;;;;;7.65;5.90;;;;;;;4.21;100.00;93499.16;2122756;28;20046;-90
2021/10/26 02:15:22;;;;;;;6.72;6.03;;;;;;;4.26;100.00;93506.03;2122061;27;20033;-92
2021/10/26 02:16:23;;;;;;;9.77;6.13;;;;;;;4.29;100.00;93505.28;2114574;28;20027;-87
2021/10/26 02:17:24;;;;;;;8.48;7.05;;;;;;;4.23;100.00;93502.22;2114295;28;20023;-87
2021/10/26 02:18:26;;;;;;;7.45;6.55;;;;;;;4.09;100.00;93499.47;2123013;27;20028;-90
2021/10/26 02:19:27;;;;;;;9.30;6.72;;;;;;;4.10;100.00;93495.69;2130620;27;20157;-90
2021/10/26 02:20:29;;;;;;;8.35;6.40;;;;;;;4.11;100.00;93499.09;2131624;27;20026;-86
2021/10/26 02:21:30;;;;;;;6.45;5.72;;;;;;;4.10;100.00;93505.50;2114889;28;20115;-95
2021/10/26 02:22:31;;;;;;;6.82;5.72;;;;;;;4.12;100.00;93500.59;2117235;28;20419;-88
2021/10/26 02:23:32;;;;;;;8.43;6.40;;;;;;;4.09;100.00;93501.34;2122765;27;20027;-89
2021/10/26 02:24:33;;;;;;;8.95;6.13;;;;;;;4.07;100.00;93501.69;2131111;27;20014;-89
2021/10/26 02:25:34;;;;;;;8.63;6.25;;;;;;;4.08;100.00;93494.50;2114344;27;20042;-91
2021/10/26 02:26:35;;;;;;;7.70;6.40;;;;;;;4.11;100.00;93507.78;2122688;28;20552;-90
2021/10/26 02:27:36;;;;;;;7.53;5.93;;;;;;;4.13;100.00;93499.50;2120526;27;20051;-89
2021/10/26 02:28:37;;;;;;;8.18;6.65;;;;;;;4.12;100.00;93503.25;2120992;27;20023;-90
2021/10/26 02:29:39;;;;;;;7.35;6.15;;;;;;;4.10;100.00;93503.63;2122904;27;20020;-93
2021/10/26 02:30:41;;;;;;;7.70;6.05;;;;;;;4.10;100.00;93506.25;2122692;27;20481;-89
2021/10/26 02:31:43;;;;;;;6.65;5.93;;;;;;;4.07;100.00;93509.63;2131650;27;20023;-91
2021/10/26 02:32:44;;;;;;;7.47;6.40;;;;;;;4.04;100.00;93503.19;2115623;27;20030;-90
2021/10/26 02:33:45;;;;;;;8.00;5.80;;;;;;;4.00;100.00;93505.03;2122705;27;20446;-90
2021/10/26 02:34:47;;;;;;;9.00;6.63;;;;;;;4.06;100.00;93502.06;2114332;28;20034;-86
2021/10/26 02:35:48;;;;;;;7.35;6.50;;;;;;;4.04;100.00;93503.19;2113507;27;20019;-90
2021/10/26 02:36:49;;;;;;;10.05;6.30;;;;;;;4.01;100.00;93508.44;2114077;28;20031;-90
2021/10/26 02:37:50;;;;;;;7.90;6.15;;;;;;;4.01;100.00;93503.16;2108262;28;20027;-88
2021/10/26 02:38:51;;;;;;;10.32;6.25;;;;;;;4.09;100.00;93511.94;2114292;27;20031;-87
2021/10/26 02:39:52;;;;;;;7.20;5.97;;;;;;;4.14;100.00;93514.25;2119601;28;20093;-87
2021/10/26 02:40:53;;;;;;;8.07;5.95;;;;;;;4.11;100.00;93514.94;2120890;28;20082;-90
2021/10/26 02:41:54;;;;;;;14.95;5.80;;;;;;;4.18;100.00;93509.75;2103848;28;20504;-89
2021/10/26 02:42:56;;;;;;;7.47;6.65;;;;;;;4.16;100.00;93514.63;2106340;28;20058;-91
2021/10/26 02:43:58;;;;;;;8.60;5.93;;;;;;;4.12;100.00;93519.13;2113390;27;20023;-88
2021/10/26 02:44:59;;;;;;;8.57;5.93;;;;;;;4.18;100.00;93522.97;2130371;27;20068;-89
2021/10/26 02:46:00;;;;;;;8.98;5.72;;;;;;;4.18;100.00;93521.06;2124852;27;20440;-93
2021/10/26 02:47:02;;;;;;;9.50;6.85;;;;;;;4.28;100.00;93524.94;2111565;28;20024;-90
2021/10/26 02:48:03;;;;;;;7.50;6.50;;;;;;;4.32;100.00;93524.97;2105906;28;20067;-91
2021/10/26 02:49:04;;;;;;;9.15;6.70;;;;;;;4.33;100.00;93524.59;2103001;28;20024;-89
2021/10/26 02:50:06;;;;;;;8.98;6.55;;;;;;;4.38;100.00;93521.59;2118485;28;20024;-87
2021/10/26 02:51:08;;;;;;;10.77;6.82;;;;;;;4.38;100.00;93524.25;2105603;28;20107;-88
2021/10/26 02:52:09;;;;;;;8.00;6.65;;;;;;;4.38;100.00;93526.16;2105626;28;20024;-88
2021/10/26 02:53:10;;;;;;;7.57;6.35;;;;;;;4.39;100.00;93527.66;2111352;28;20024;-88
2021/10/26 02:54:11;;;;;;;7.10;6.40;;;;;;;4.45;100.00;93529.63;2113974;28;20027;-86
2021/10/26 02:55:12;;;;;;;7.82;6.38;;;;;;;4.41;100.00;93520.88;2114211;27;20027;-88
2021/10/26 02:56:14;;;;;;;7.88;6.03;;;;;;;4.35;100.00;93519.72;2122623;27;20047;-88
2021/10/26 02:57:15;;;;;;;8.73;6.25;;;;;;;4.30;100.00;93525.31;2115773;28;20058;-85
2021/10/26 02:58:17;;;;;;;8.18;6.00;;;;;;;4.28;100.00;93522.28;2110563;28;20389;-87
2021/10/26 02:59:19;;;;;;;7.30;6.38;;;;;;;4.24;100.00;93519.59;2118343;27;20447;-88
2021/10/26 03:00:20;;;;;;;6.80;5.82;;;;;;;4.23;100.00;93519.97;2114001;27;20027;-89
2021/10/26 03:01:21;;;;;;;7.93;5.78;;;;;;;4.28;100.00;93519.66;2116128;28;20438;-87
2021/10/26 03:02:22;;;;;;;6.78;5.65;;;;;;;4.30;100.00;93520.03;2115582;28;20020;-89
2021/10/26 03:03:29;;;;;;;7.97;5.50;;;;;;;4.24;100.00;93514.31;2103909;28;20024;-90
2021/10/26 03:04:30;;;;;;;7.03;5.95;;;;;;;4.21;100.00;93514.28;2106389;28;20032;-92
2021/10/26 03:05:31;;;;;;;8.57;6.85;;;;;;;4.28;100.00;93519.66;2115144;28;20090;-89
2021/10/26 03:06:32;;;;;;;7.07;5.80;;;;;;;4.23;100.00;93517.34;2113886;27;20024;-88
2021/10/26 03:07:44;;;;;;;6.82;6.00;;;;;;;4.36;100.00;93520.47;2113288;28;20070;-87
2021/10/26 03:08:45;;;;;;;7.70;6.20;;;;;;;4.42;100.00;93522.41;2122559;28;20031;-92
2021/10/26 03:09:46;;;;;;;6.97;5.95;;;;;;;4.47;100.00;93516.75;2108408;28;20083;-87
2021/10/26 03:10:48;;;;;;;8.70;6.20;;;;;;;4.46;100.00;93522.44;2108574;28;20032;-89
2021/10/26 03:11:49;;;;;;;9.52;6.32;;;;;;;4.41;100.00;93518.25;2114596;27;20027;-88
2021/10/26 03:12:50;;;;;;;8.50;6.15;;;;;;;4.33;100.00;93515.91;2116645;28;20043;-89
2021/10/26 03:13:51;;;;;;;7.38;6.25;;;;;;;4.41;100.00;93523.53;2115686;28;20039;-88
2021/10/26 03:14:52;;;;;;;6.65;5.95;;;;;;;4.43;100.00;93515.97;2113760;28;20182;-92
2021/10/26 03:15:53;;;;;;;9.15;6.30;;;;;;;4.41;100.00;93528.81;2121436;28;20031;-90
2021/10/26 03:16:54;;;;;;;7.30;6.60;;;;;;;4.62;100.00;93530.13;2111647;28;20015;-90
2021/10/26 03:17:56;;;;;;;9.80;6.57;;;;;;;4.45;100.00;93524.31;2108704;28;20021;-92
2021/10/26 03:18:57;;;;;;;6.72;6.10;;;;;;;4.40;100.00;93527.31;2110525;28;20019;-90
2021/10/26 03:19:59;;;;;;;7.82;5.93;;;;;;;4.36;100.00;93521.22;2105056;28;20147;-91
2021/10/26 03:21:00;;;;;;;7.78;6.78;;;;;;;4.36;100.00;93523.13;2103192;28;20133;-89
2021/10/26 03:22:01;;;;;;;9.85;6.57;;;;;;;4.39;100.00;93525.00;2099155;28;20016;-89
2021/10/26 03:23:03;;;;;;;7.40;6.38;;;;;;;4.34;100.00;93528.00;2099755;28;20032;-91
2021/10/26 03:24:05;;;;;;;9.90;7.03;;;;;;;4.31;100.00;93526.84;2108399;28;20095;-88
2021/10/26 03:25:07;;;;;;;8.32;6.00;;;;;;;4.27;100.00;93529.47;2113019;28;20440;-86
2021/10/26 03:26:08;;;;;;;6.93;5.88;;;;;;;4.28;100.00;93528.34;2119508;27;20244;-86
2021/10/26 03:27:10;;;;;;;8.90;6.72;;;;;;;4.36;100.00;93526.53;2111580;28;20497;-86
2021/10/26 03:28:11;;;;;;;7.72;6.68;;;;;;;4.49;100.00;93530.41;2108054;28;20503;-92
2021/10/26 03:29:12;;;;;;;8.15;7.05;;;;;;;4.52;100.00;93528.91;2099611;28;20103;-89
2021/10/26 03:30:14;;;;;;;7.03;6.32;;;;;;;4.52;100.00;93527.03;2121721;27;20076;-93
2021/10/26 03:31:15;;;;;;;9.93;6.90;;;;;;;4.48;100.00;93534.19;2115877;28;20028;-90
2021/10/26 03:32:16;;;;;;;10.55;6.53;;;;;;;4.51;100.00;93533.44;2116214;27;20027;-87
2021/10/26 03:33:17;;;;;;;10.27;6.43;;;;;;;4.50;100.00;93526.63;2107952;28;20028;-92
2021/10/26 03:34:18;;;;;;;10.00;7.60;;;;;;;4.56;100.00;93524.41;2107857;28;20020;-89
2021/10/26 03:35:19;;;;;;;8.30;6.88;;;;;;;4.57;100.00;93531.22;2107792;28;20389;-88
2021/10/26 03:36:20;;;;;;;7.85;6.63;;;;;;;4.50;100.00;93531.16;2107430;28;20040;-89
2021/10/26 03:37:21;;;;;;;9.40;7.65;;;;;;;4.46;100.00;93535.66;2099497;28;20512;-91
2021/10/26 03:38:22;;;;;;;10.88;8.75;;;;;;;4.49;100.00;93532.28;2114867;28;20027;-88
2021/10/26 03:39:23;;;;;;;10.18;9.00;;;;;;;4.51;100.00;93535.31;2116306;28;20031;-91
2021/10/26 03:40:24;;;;;;;11.85;9.40;;;;;;;4.50;100.00;93536.47;2099112;28;20078;-88
2021/10/26 03:41:25;;;;;;;13.18;8.85;;;;;;;4.49;100.00;93534.94;2108100;28;20119;-92
2021/10/26 03:42:26;;;;;;;12.27;8.95;;;;;;;4.51;100.00;93541.38;2121501;27;20106;-91
2021/10/26 03:43:27;;;;;;;10.23;8.65;;;;;;;4.48;100.00;93533.44;2107774;28;20073;-93
2021/10/26 03:44:28;;;;;;;9.73;8.35;;;;;;;4.47;100.00;93526.59;2106234;28;20028;-93
2021/10/26 03:45:29;;;;;;;12.98;8.55;;;;;;;4.48;100.00;93528.91;2116183;28;20031;-87
2021/10/26 03:46:30;;;;;;;11.43;8.63;;;;;;;4.52;100.00;93526.25;2104154;28;20115;-87
2021/10/26 03:47:31;;;;;;;11.07;7.43;;;;;;;4.58;100.00;93530.09;2102451;28;20051;-90
2021/10/26 03:48:32;;;;;;;8.77;7.47;;;;;;;4.66;100.00;93533.56;2115168;27;20094;-88
2021/10/26 03:49:33;;;;;;;9.95;7.40;;;;;;;4.62;100.00;93530.88;2107725;28;20020;-88
2021/10/26 03:50:34;;;;;;;9.00;7.00;;;;;;;4.63;100.00;93534.28;2110170;28;20117;-90
2021/10/26 03:51:35;;;;;;;9.20;7.20;;;;;;;4.60;100.00;93533.13;2116262;28;20099;-93
2021/10/26 03:52:36;;;;;;;8.65;7.25;;;;;;;4.57;100.00;93538.41;2105627;28;20077;-88
2021/10/26 03:53:37;;;;;;;9.10;6.95;;;;;;;4.50;100.00;93531.91;2099509;28;20028;-86
2021/10/26 03:54:42;;;;;;;11.00;7.30;;;;;;;4.51;100.00;93533.44;2102117;28;20047;-91
2021/10/26 03:55:43;;;;;;;10.10;6.78;;;;;;;4.52;100.00;93536.84;2117167;27;20024;-90
2021/10/26 03:56:44;;;;;;;10.07;7.18;;;;;;;4.53;100.00;93533.84;2116000;28;20031;-92
2021/10/26 03:57:45;;;;;;;8.40;7.28;;;;;;;4.58;100.00;93540.69;2116332;27;20368;-90
2021/10/26 03:58:46;;;;;;;8.65;6.85;;;;;;;4.59;100.00;93539.56;2102480;28;20467;-90
2021/10/26 03:59:47;;;;;;;7.38;6.57;;;;;;;4.70;100.00;93534.34;2106004;28;20027;-87
2021/10/26 04:00:47;;;;;;;7.57;6.38;;;;;;;4.68;100.00;93529.41;2116012;28;20020;-87
2021/10/26 04:01:49;;;;;;;8.38;7.00;;;;;;;4.70;100.00;93529.06;2116362;28;20582;-90
2021/10/26 04:02:51;;;;;;;9.43;6.85;;;;;;;4.66;100.00;93538.84;2110370;28;20027;-90
2021/10/26 04:03:53;;;;;;;8.95;6.88;;;;;;;4.59;100.00;93530.84;2122842;27;20023;-87
2021/10/26 04:05:04;;;;;;;8.30;6.75;;;;;;;4.56;100.00;93527.03;2110691;28;20023;-90
2021/10/26 04:06:08;;;;;;;8.98;7.10;;;;;;;4.58;100.00;93535.38;2115055;28;20027;-89
2021/10/26 04:07:10;;;;;;;8.73;6.28;;;;;;;4.65;100.00;93532.78;2099922;28;20036;-87
2021/10/26 04:09:54;;;;;;;7.38;6.68;;;;;;;4.73;100.00;93541.53;2087265;28;20571;-90
2021/10/26 04:10:59;;;;;;;7.47;6.50;;;;;;;4.73;100.00;93544.19;2110410;27;20078;-90
2021/10/26 04:12:24;;;;;;;7.60;6.18;;;;;;;4.72;100.00;93537.38;2116767;27;20062;-89
2021/10/26 04:13:25;;;;;;;10.48;6.07;;;;;;;4.75;100.00;93537.41;2110719;28;20072;-90
2021/10/26 04:14:26;;;;;;;8.15;6.78;;;;;;;4.80;100.00;93544.25;2099007;28;20021;-89
2021/10/26 04:15:28;;;;;;;9.52;6.60;;;;;;;4.79;100.00;93542.72;2098827;28;20024;-87
2021/10/26 04:16:29;;;;;;;8.40;6.38;;;;;;;4.76;100.00;93544.22;2099197;28;20031;-88
2021/10/26 04:17:30;;;;;;;9.63;6.85;;;;;;;4.79;100.00;93534.78;2107510;28;20031;-89
2021/10/26 04:18:31;;;;;;;7.25;6.55;;;;;;;4.72;100.00;93548.72;2116022;28;20087;-90
2021/10/26 04:19:32;;;;;;;8.32;7.05;;;;;;;4.75;100.00;93547.25;2104180;28;20428;-89
2021/10/26 04:20:33;;;;;;;6.78;5.90;;;;;;;4.74;100.00;93551.78;2099068;28;20119;-86
2021/10/26 04:21:34;;;;;;;8.32;6.15;;;;;;;4.72;100.00;93548.72;2099213;28;20023;-90
2021/10/26 04:22:35;;;;;;;6.55;5.95;;;;;;;4.74;100.00;93549.13;2107789;28;20483;-90
2021/10/26 04:23:36;;;;;;;8.05;6.00;;;;;;;4.70;100.00;93555.53;2124374;27;20027;-92
2021/10/26 04:24:37;;;;;;;9.25;7.30;;;;;;;4.67;100.00;93554.38;2115839;28;20027;-92
2021/10/26 04:25:38;;;;;;;7.53;6.63;;;;;;;4.71;100.00;93552.50;2098965;28;20488;-92
2021/10/26 04:26:39;;;;;;;7.65;6.40;;;;;;;4.76;100.00;93552.16;2107601;27;20034;-90
2021/10/26 04:27:40;;;;;;;6.65;6.00;;;;;;;4.77;100.00;93547.63;2103101;28;20079;-91
2021/10/26 04:28:42;;;;;;;6.90;6.10;;;;;;;4.75;100.00;93549.91;2106737;28;20030;-92
2021/10/26 04:29:45;;;;;;;7.35;6.55;;;;;;;4.72;100.00;93553.25;2107607;28;20020;-91
2021/10/26 04:30:47;;;;;;;6.80;6.20;;;;;;;4.74;100.00;93556.28;2109302;28;20492;-90
2021/10/26 04:31:48;;;;;;;8.38;6.30;;;;;;;4.77;100.00;93547.63;2107143;28;20024;-88
2021/10/26 04:32:48;;;;;;;11.50;7.18;;;;;;;4.71;100.00;93547.22;2107501;28;20143;-92
2021/10/26 04:33:49;;;;;;;10.13;8.05;;;;;;;4.69;100.00;93546.81;2115544;27;20019;-89
2021/10/26 04:34:50;;;;;;;11.38;9.88;;;;;;;4.69;100.00;93552.09;2107351;28;20016;-89
2021/10/26 04:35:52;;;;;;;8.35;7.55;;;;;;;4.70;100.00;93550.25;2099132;28;20020;-91
2021/10/26 04:36:53;;;;;;;8.60;7.60;;;;;;;4.75;100.00;93550.66;2106448;28;20020;-91
2021/10/26 04:37:54;;;;;;;10.00;9.00;;;;;;;4.75;100.00;93542.72;2099261;28;20020;-90
2021/10/26 04:38:55;;;;;;;9.35;8.43;;;;;;;4.78;100.00;93549.13;2105993;28;20382;-88
2021/10/26 04:39:56;;;;;;;8.10;7.13;;;;;;;4.82;100.00;93552.56;2107374;28;20024;-92
2021/10/26 04:40:57;;;;;;;7.13;6.20;;;;;;;4.84;100.00;93546.94;2103024;28;20024;-86
2021/10/26 04:41:58;;;;;;;7.20;5.97;;;;;;;4.86;100.00;93553.34;2108889;28;20015;-88
2021/10/26 04:43:01;;;;;;;8.45;6.35;;;;;;;4.84;100.00;93552.22;2114101;28;20038;-89
2021/10/26 04:44:03;;;;;;;9.05;5.63;;;;;;;4.76;100.00;93551.41;2099491;28;20350;-89
2021/10/26 04:45:05;;;;;;;7.00;6.35;;;;;;;4.75;100.00;93555.19;2115808;28;20015;-90
2021/10/26 04:46:06;;;;;;;7.82;6.10;;;;;;;4.76;100.00;93556.69;2115756;28;20031;-93
2021/10/26 04:47:07;;;;;;;6.28;5.68;;;;;;;4.78;100.00;93552.56;2106784;28;20023;-88
2021/10/26 04:48:16;;;;;;;7.18;5.70;;;;;;;4.85;100.00;93553.75;2107415;28;20028;-89
2021/10/26 04:49:17;;;;;;;7.53;6.20;;;;;;;4.85;100.00;93554.50;2117016;27;20023;-90
2021/10/26 04:50:19;;;;;;;7.38;6.53;;;;;;;4.77;100.00;93556.31;2115744;28;20073;-92
2021/10/26 04:51:19;;;;;;;7.65;6.15;;;;;;;4.74;100.00;93557.06;2107730;27;20118;-91
2021/10/26 04:52:21;;;;;;;6.55;5.32;;;;;;;4.76;100.00;93552.16;2122538;27;20030;-86
2021/10/26 04:53:23;;;;;;;9.07;6.63;;;;;;;4.75;100.00;93547.25;2108046;28;20472;-87